createdAt,value
2022-12-13T00:08:26.847Z,974.79
2022-12-13T00:20:27.274Z,974.89
2022-12-13T00:32:27.708Z,974.93
2022-12-13T00:44:28.168Z,975.05
2022-12-13T00:56:28.611Z,975.09
2022-12-13T01:08:29.164Z,975.20
2022-12-13T01:20:29.506Z,975.32
2022-12-13T01:32:29.999Z,975.27
2022-12-13T01:44:30.388Z,975.13
2022-12-13T01:56:30.890Z,975.08
2022-12-13T02:08:31.350Z,975.12
2022-12-13T02:20:31.800Z,975.08
2022-12-13T02:32:32.228Z,975.09
2022-12-13T02:44:32.675Z,975.01
2022-12-13T02:56:33.146Z,974.95
2022-12-13T03:08:33.606Z,974.98
2022-12-13T03:20:34.034Z,974.93
2022-12-13T03:32:34.471Z,974.98
2022-12-13T03:44:34.916Z,974.90
2022-12-13T03:56:35.411Z,974.93
2022-12-13T04:08:35.922Z,974.90
2022-12-13T04:20:36.304Z,974.89
2022-12-13T04:32:36.745Z,974.84
2022-12-13T04:44:37.386Z,974.91
2022-12-13T04:56:37.634Z,974.92
2022-12-13T05:08:38.048Z,974.75
2022-12-13T05:20:38.535Z,974.72
2022-12-13T05:32:42.756Z,974.83
2022-12-13T05:44:39.433Z,974.79
2022-12-13T05:56:39.882Z,974.74
2022-12-13T06:08:40.432Z,974.81
2022-12-13T06:20:40.809Z,974.84
2022-12-13T06:32:43.852Z,974.83
2022-12-13T06:44:41.684Z,974.88
2022-12-13T06:56:42.156Z,974.94
2022-12-13T07:08:42.629Z,974.99
2022-12-13T07:20:43.060Z,975.07
2022-12-13T07:32:43.478Z,975.05
2022-12-13T07:44:43.964Z,975.10
2022-12-13T07:56:44.425Z,974.93
2022-12-13T08:08:44.831Z,974.79
2022-12-13T08:20:45.285Z,974.80
2022-12-13T08:32:45.815Z,974.69
2022-12-13T08:44:46.227Z,974.71
2022-12-13T08:56:46.643Z,974.78
2022-12-13T09:08:51.501Z,974.90
2022-12-13T09:20:47.565Z,974.79
2022-12-13T09:32:48.053Z,974.51
2022-12-13T09:45:01.013Z,974.40
2022-12-13T09:56:48.924Z,974.31
2022-12-13T10:08:49.347Z,974.38
2022-12-13T10:20:49.772Z,974.20
2022-12-13T10:32:50.258Z,974.06
2022-12-13T10:44:50.737Z,973.91
2022-12-13T10:56:51.189Z,973.89
2022-12-13T11:08:51.644Z,973.81
2022-12-13T11:20:54.260Z,973.64
2022-12-13T11:32:57.448Z,973.52
2022-12-13T11:44:52.984Z,973.33
2022-12-13T11:57:00.017Z,973.30
2022-12-13T12:08:53.906Z,973.34
2022-12-13T12:20:54.364Z,973.19
2022-12-13T12:32:54.824Z,973.07
2022-12-13T12:44:55.386Z,972.89
2022-12-13T12:56:55.732Z,972.94
2022-12-13T13:08:56.174Z,973.06
2022-12-13T13:20:56.721Z,973.18
2022-12-13T13:32:57.203Z,973.29
2022-12-13T13:44:57.522Z,973.15
2022-12-13T13:56:57.937Z,973.31
2022-12-13T14:08:58.416Z,973.21
2022-12-13T14:20:58.903Z,973.25
2022-12-13T14:32:59.330Z,973.23
2022-12-13T14:44:59.757Z,973.16
2022-12-13T14:57:00.236Z,973.35
2022-12-13T15:09:00.715Z,973.41
2022-12-13T15:21:01.144Z,973.47
2022-12-13T15:33:01.590Z,973.43
2022-12-13T15:45:02.047Z,973.50
2022-12-13T15:57:02.482Z,973.50
2022-12-13T16:09:02.958Z,973.57
2022-12-13T16:21:03.382Z,973.61
2022-12-13T16:33:18.554Z,973.65
2022-12-13T16:45:40.115Z,973.69
2022-12-13T16:57:04.767Z,973.64
2022-12-13T17:09:05.191Z,973.64
2022-12-13T17:21:05.650Z,973.53
2022-12-13T17:33:06.093Z,973.63
2022-12-13T17:45:06.549Z,973.52
2022-12-13T17:57:06.955Z,973.62
2022-12-13T18:09:07.469Z,973.65
2022-12-13T18:21:08.022Z,973.72
2022-12-13T18:33:08.357Z,973.69
2022-12-13T18:45:08.814Z,973.75
2022-12-13T18:57:09.254Z,973.81
2022-12-13T19:09:09.745Z,973.80
2022-12-13T19:21:10.168Z,973.83
2022-12-13T19:33:10.596Z,973.80
2022-12-13T19:45:11.054Z,973.74
2022-12-13T19:57:11.541Z,973.79
2022-12-13T20:09:12.045Z,973.86
2022-12-13T20:21:13.279Z,973.72
2022-12-13T20:33:12.938Z,973.68
2022-12-13T20:45:13.340Z,973.56
2022-12-13T20:57:13.771Z,973.47
2022-12-13T21:09:14.288Z,973.26
2022-12-13T21:21:14.632Z,973.21
2022-12-13T21:33:15.308Z,973.24
2022-12-13T21:45:15.569Z,973.14
2022-12-13T21:57:16.032Z,973.12
2022-12-13T22:09:16.480Z,972.87
2022-12-13T22:21:16.935Z,972.77
2022-12-13T22:33:17.363Z,972.63
2022-12-13T22:45:17.828Z,972.60
2022-12-13T22:57:18.268Z,972.46
2022-12-13T23:09:18.751Z,972.46
2022-12-13T23:21:19.181Z,972.38
2022-12-13T23:33:19.611Z,972.41
2022-12-13T23:45:20.058Z,972.29
2022-12-13T23:57:20.557Z,972.12
